createdAt,value
2018-03-31T00:00:00.149Z,4.80
2018-03-31T00:02:27.614Z,4.57
2018-03-31T00:04:55.084Z,5.47
2018-03-31T00:07:22.072Z,5.28
2018-03-31T00:09:49.486Z,4.57
2018-03-31T00:12:16.608Z,4.43
2018-03-31T00:14:43.679Z,5.03
2018-03-31T00:17:10.678Z,4.50
2018-03-31T00:19:38.083Z,4.35
2018-03-31T00:22:05.084Z,3.80
2018-03-31T00:24:32.108Z,4.93
2018-03-31T00:26:59.101Z,3.90
2018-03-31T00:29:26.137Z,4.50
2018-03-31T00:31:53.605Z,4.90
2018-03-31T00:34:20.617Z,5.22
2018-03-31T00:36:47.613Z,5.10
2018-03-31T00:39:14.628Z,5.97
2018-03-31T00:41:42.096Z,5.20
2018-03-31T00:44:09.104Z,5.00
2018-03-31T00:46:36.502Z,5.35
2018-03-31T00:49:03.523Z,5.28
2018-03-31T00:51:30.591Z,5.82
2018-03-31T00:53:57.611Z,5.47
2018-03-31T00:56:24.636Z,5.32
2018-03-31T00:58:51.715Z,5.15
2018-03-31T01:01:18.793Z,5.90
2018-03-31T01:03:45.870Z,4.57
2018-03-31T01:06:12.941Z,5.60
2018-03-31T01:08:40.014Z,5.62
2018-03-31T01:11:07.018Z,6.57
2018-03-31T01:13:34.028Z,6.18
2018-03-31T01:16:01.129Z,6.22
2018-03-31T01:18:28.145Z,5.70
2018-03-31T01:20:55.137Z,5.82
2018-03-31T01:23:22.138Z,5.12
2018-03-31T01:25:49.205Z,5.75
2018-03-31T01:28:19.233Z,6.05
2018-03-31T01:30:46.325Z,5.93
2018-03-31T01:33:13.325Z,5.28
2018-03-31T01:35:40.742Z,4.95
2018-03-31T01:38:07.727Z,5.60
2018-03-31T01:40:34.820Z,5.93
2018-03-31T01:43:01.914Z,7.20
2018-03-31T01:45:29.386Z,6.72
2018-03-31T01:47:56.375Z,6.70
2018-03-31T01:50:23.834Z,6.40
2018-03-31T01:52:50.838Z,6.35
2018-03-31T01:55:17.866Z,7.18
2018-03-31T01:57:44.870Z,6.25
2018-03-31T02:00:12.327Z,7.28
2018-03-31T02:02:39.311Z,6.95
2018-03-31T02:05:06.382Z,6.75
2018-03-31T02:07:33.383Z,6.70
2018-03-31T02:10:00.412Z,7.22
2018-03-31T02:12:27.423Z,7.07
2018-03-31T02:14:54.456Z,7.25
2018-03-31T02:17:21.529Z,6.40
2018-03-31T02:19:48.618Z,6.05
2018-03-31T02:22:15.694Z,7.75
2018-03-31T02:24:43.109Z,7.15
2018-03-31T02:27:10.101Z,7.32
2018-03-31T02:29:37.132Z,8.30
2018-03-31T02:32:04.515Z,7.72
2018-03-31T02:34:31.542Z,7.85
2018-03-31T02:36:58.537Z,7.12
2018-03-31T02:39:25.597Z,7.00
2018-03-31T02:41:52.609Z,6.95
2018-03-31T02:44:19.641Z,6.75
2018-03-31T02:46:46.712Z,7.28
2018-03-31T02:49:13.716Z,6.93
2018-03-31T02:51:41.188Z,7.00
2018-03-31T02:54:08.590Z,8.00
2018-03-31T02:56:35.623Z,7.75
2018-03-31T02:59:02.628Z,7.45
2018-03-31T03:01:29.668Z,6.87
2018-03-31T03:03:56.749Z,7.05
2018-03-31T03:06:23.827Z,7.30
2018-03-31T03:08:51.306Z,8.32
2018-03-31T03:11:18.376Z,8.68
2018-03-31T03:13:45.455Z,8.80
2018-03-31T03:16:12.467Z,7.70
2018-03-31T03:18:39.493Z,8.23
2018-03-31T03:21:06.669Z,7.70
2018-03-31T03:23:33.661Z,8.25
2018-03-31T03:26:01.087Z,8.65
2018-03-31T03:28:28.105Z,8.52
2018-03-31T03:30:55.530Z,8.68
2018-03-31T03:33:22.524Z,9.05
2018-03-31T03:35:49.537Z,8.90
2018-03-31T03:38:16.925Z,7.57
2018-03-31T03:40:44.341Z,7.97
2018-03-31T03:43:11.349Z,7.87
2018-03-31T03:45:38.360Z,8.30
2018-03-31T03:48:05.363Z,7.95
2018-03-31T03:50:32.394Z,8.15
2018-03-31T03:52:59.428Z,7.90
2018-03-31T03:55:26.552Z,8.75
2018-03-31T03:57:53.987Z,8.85
2018-03-31T04:00:21.018Z,9.40
2018-03-31T04:02:48.018Z,9.20
2018-03-31T04:05:15.072Z,9.00
2018-03-31T04:07:42.060Z,7.80
2018-03-31T04:10:09.163Z,8.85
2018-03-31T04:12:36.170Z,10.60
2018-03-31T04:15:03.531Z,8.30
2018-03-31T04:17:30.537Z,9.52
2018-03-31T04:19:57.529Z,9.23
2018-03-31T04:22:24.558Z,9.52
2018-03-31T04:24:51.556Z,10.40
2018-03-31T04:27:18.584Z,9.57
2018-03-31T04:29:45.598Z,9.32
2018-03-31T04:32:12.614Z,8.02
2018-03-31T04:34:39.618Z,7.57
2018-03-31T04:37:06.628Z,8.40
2018-03-31T04:39:33.612Z,9.75
2018-03-31T04:42:00.624Z,9.60
2018-03-31T04:44:27.630Z,9.40
2018-03-31T04:46:54.641Z,9.43
2018-03-31T04:49:21.632Z,10.27
2018-03-31T04:51:49.042Z,9.85
2018-03-31T04:54:16.049Z,10.05
2018-03-31T04:56:43.074Z,10.43
2018-03-31T04:59:10.070Z,10.07
2018-03-31T05:01:37.080Z,9.13
2018-03-31T05:04:04.158Z,11.27
2018-03-31T05:06:31.578Z,10.35
2018-03-31T05:08:58.572Z,11.88
2018-03-31T05:11:25.584Z,10.73
2018-03-31T05:13:52.977Z,10.68
2018-03-31T05:16:20.386Z,10.45
2018-03-31T05:18:47.385Z,13.30
2018-03-31T05:21:14.513Z,10.15
2018-03-31T05:23:41.504Z,10.70
2018-03-31T05:26:08.520Z,9.98
2018-03-31T05:28:35.522Z,9.63
2018-03-31T05:31:02.538Z,10.55
2018-03-31T05:33:29.541Z,10.35
2018-03-31T05:35:56.545Z,10.63
2018-03-31T05:38:23.555Z,12.45
2018-03-31T05:40:50.562Z,10.35
2018-03-31T05:43:18.032Z,12.30
2018-03-31T05:45:45.030Z,12.15
2018-03-31T05:48:12.512Z,11.68
2018-03-31T05:50:39.987Z,12.50
2018-03-31T05:53:07.418Z,13.60
2018-03-31T05:55:34.427Z,12.65
2018-03-31T05:58:01.495Z,11.90
2018-03-31T06:00:28.506Z,12.43
2018-03-31T06:02:55.536Z,12.90
2018-03-31T06:05:22.617Z,12.13
2018-03-31T06:07:49.699Z,10.80
2018-03-31T06:10:17.093Z,11.35
2018-03-31T06:12:44.548Z,12.57
2018-03-31T06:15:11.617Z,14.02
2018-03-31T06:17:38.697Z,12.18
2018-03-31T06:20:05.783Z,8.27
2018-03-31T06:22:33.210Z,8.07
2018-03-31T06:25:00.212Z,9.10
2018-03-31T06:27:27.234Z,9.27
2018-03-31T06:29:54.276Z,9.98
2018-03-31T06:32:21.676Z,9.15
2018-03-31T06:34:49.126Z,9.90
2018-03-31T06:37:16.149Z,11.02
2018-03-31T06:39:43.172Z,9.50
2018-03-31T06:42:10.176Z,9.93
2018-03-31T06:44:37.220Z,9.90
2018-03-31T06:47:04.240Z,11.82
2018-03-31T06:49:31.244Z,12.75
2018-03-31T06:51:58.275Z,13.25
2018-03-31T06:54:25.269Z,11.85
2018-03-31T06:56:52.274Z,11.90
2018-03-31T06:59:19.289Z,12.25
2018-03-31T07:01:46.280Z,12.37
2018-03-31T07:04:13.389Z,14.25
2018-03-31T07:06:40.382Z,12.90
2018-03-31T07:09:07.792Z,11.25
2018-03-31T07:11:34.781Z,10.00
2018-03-31T07:14:01.820Z,11.77
2018-03-31T07:16:28.862Z,12.02
2018-03-31T07:18:55.928Z,12.05
2018-03-31T07:21:23.001Z,11.82
2018-03-31T07:23:50.026Z,12.50
2018-03-31T07:26:17.039Z,12.98
2018-03-31T07:28:44.130Z,11.80
2018-03-31T07:31:11.527Z,10.63
2018-03-31T07:33:38.986Z,13.07
2018-03-31T07:36:06.056Z,10.90
2018-03-31T07:38:33.120Z,9.82
2018-03-31T07:41:00.148Z,8.50
2018-03-31T07:43:27.174Z,9.13
2018-03-31T07:45:54.183Z,8.30
2018-03-31T07:48:21.223Z,6.78
2018-03-31T07:50:48.216Z,7.05
2018-03-31T07:53:15.250Z,6.82
2018-03-31T07:55:42.324Z,7.12
2018-03-31T07:58:09.410Z,7.18
2018-03-31T08:00:36.409Z,6.20
2018-03-31T08:03:03.434Z,6.28
2018-03-31T08:05:30.437Z,7.65
2018-03-31T08:07:57.622Z,6.75
2018-03-31T08:10:25.012Z,7.03
2018-03-31T08:12:52.048Z,6.78
2018-03-31T08:15:19.046Z,5.43
2018-03-31T08:17:46.054Z,5.65
2018-03-31T08:20:13.174Z,6.03
2018-03-31T08:22:40.663Z,6.03
2018-03-31T08:25:08.138Z,6.90
2018-03-31T08:27:35.622Z,7.90
2018-03-31T08:30:03.099Z,9.23
2018-03-31T08:32:30.100Z,9.10
2018-03-31T08:34:57.152Z,9.45
2018-03-31T08:37:24.556Z,10.77
2018-03-31T08:39:51.586Z,10.07
2018-03-31T08:42:18.601Z,9.70
2018-03-31T08:44:46.612Z,8.07
2018-03-31T08:47:13.616Z,7.63
2018-03-31T08:49:40.633Z,7.93
2018-03-31T08:52:07.621Z,6.43
2018-03-31T08:54:34.695Z,6.77
2018-03-31T08:57:02.049Z,6.50
2018-03-31T08:59:29.523Z,5.50
2018-03-31T09:01:56.927Z,5.20
2018-03-31T09:04:23.943Z,6.00
2018-03-31T09:06:50.940Z,5.43
2018-03-31T09:09:18.396Z,4.77
2018-03-31T09:11:45.407Z,4.67
2018-03-31T09:14:12.865Z,4.60
2018-03-31T09:16:39.991Z,3.60
2018-03-31T09:19:07.004Z,2.50
2018-03-31T09:21:34.088Z,1.40
2018-03-31T09:24:01.160Z,1.17
2018-03-31T09:26:28.263Z,1.77
2018-03-31T09:28:55.289Z,2.30
2018-03-31T09:31:22.289Z,2.73
2018-03-31T09:33:49.330Z,2.57
2018-03-31T09:36:16.855Z,2.20
2018-03-31T09:38:44.291Z,2.63
2018-03-31T09:41:11.318Z,3.17
2018-03-31T09:43:38.353Z,2.57
2018-03-31T09:46:05.391Z,3.20
2018-03-31T09:48:32.384Z,3.60
2018-03-31T09:50:59.491Z,4.60
2018-03-31T09:53:26.956Z,3.00
2018-03-31T09:55:53.977Z,3.00
2018-03-31T09:58:21.013Z,2.83
2018-03-31T10:00:48.424Z,2.93
2018-03-31T10:03:15.420Z,3.67
2018-03-31T10:05:42.528Z,3.00
2018-03-31T10:08:09.538Z,4.07
2018-03-31T10:10:36.574Z,2.83
2018-03-31T10:13:03.603Z,2.83
2018-03-31T10:15:30.635Z,2.70
2018-03-31T10:17:58.042Z,3.10
2018-03-31T10:20:25.091Z,3.27
2018-03-31T10:22:52.498Z,3.13
2018-03-31T10:25:19.517Z,3.10
2018-03-31T10:27:46.626Z,2.97
2018-03-31T10:30:13.654Z,2.60
2018-03-31T10:32:40.708Z,2.63
2018-03-31T10:35:07.742Z,2.70
2018-03-31T10:37:34.736Z,2.90
2018-03-31T10:40:01.760Z,2.40
2018-03-31T10:42:28.769Z,2.20
2018-03-31T10:44:55.794Z,2.60
2018-03-31T10:47:22.829Z,2.80
2018-03-31T10:49:49.859Z,2.70
2018-03-31T10:52:17.266Z,2.70
2018-03-31T10:54:44.285Z,2.73
2018-03-31T10:57:11.364Z,2.43
2018-03-31T10:59:38.406Z,3.10
2018-03-31T11:02:05.404Z,2.60
2018-03-31T11:04:32.497Z,2.20
2018-03-31T11:06:59.908Z,2.40
2018-03-31T11:09:26.954Z,2.27
2018-03-31T11:11:54.372Z,1.87
2018-03-31T11:14:21.397Z,1.97
2018-03-31T11:16:48.463Z,1.50
2018-03-31T11:19:15.544Z,2.40
2018-03-31T11:21:42.622Z,2.10
2018-03-31T11:24:10.026Z,1.60
2018-03-31T11:26:37.058Z,1.93
2018-03-31T11:29:04.057Z,2.93
2018-03-31T11:31:31.521Z,2.43
2018-03-31T11:33:58.602Z,2.10
2018-03-31T11:36:26.034Z,2.87
2018-03-31T11:38:53.155Z,3.37
2018-03-31T11:41:20.239Z,2.87
2018-03-31T11:43:47.642Z,2.87
2018-03-31T11:46:14.668Z,2.70
2018-03-31T11:48:41.671Z,2.50
2018-03-31T11:51:09.141Z,2.50
2018-03-31T11:53:36.545Z,2.60
2018-03-31T11:56:03.587Z,2.50
2018-03-31T11:58:30.593Z,2.43
2018-03-31T12:00:57.634Z,2.90
2018-03-31T12:03:24.700Z,2.53
2018-03-31T12:05:51.776Z,2.30
2018-03-31T12:08:18.851Z,2.27
2018-03-31T12:10:45.863Z,2.47
2018-03-31T12:13:12.893Z,2.40
2018-03-31T12:15:39.924Z,2.87
2018-03-31T12:18:06.920Z,2.50
2018-03-31T12:20:34.008Z,2.63
2018-03-31T12:23:01.080Z,3.13
2018-03-31T12:25:28.165Z,2.93
2018-03-31T12:27:55.646Z,3.13
2018-03-31T12:30:23.065Z,2.60
2018-03-31T12:32:50.076Z,3.67
2018-03-31T12:35:17.082Z,2.80
2018-03-31T12:37:44.517Z,3.07
2018-03-31T12:40:11.515Z,3.03
2018-03-31T12:42:38.529Z,3.40
2018-03-31T12:45:05.538Z,2.90
2018-03-31T12:47:32.556Z,2.13
2018-03-31T12:49:59.570Z,2.43
2018-03-31T12:52:26.626Z,2.30
2018-03-31T12:54:53.630Z,2.63
2018-03-31T12:57:20.796Z,2.57
2018-03-31T12:59:47.807Z,2.80
2018-03-31T13:02:15.282Z,2.43
2018-03-31T13:04:42.676Z,2.77
2018-03-31T13:07:10.142Z,2.43
2018-03-31T13:09:37.218Z,2.27
2018-03-31T13:12:04.632Z,2.13
2018-03-31T13:14:31.659Z,2.60
2018-03-31T13:16:58.751Z,2.10
2018-03-31T13:19:26.230Z,2.00
2018-03-31T13:21:53.700Z,1.97
2018-03-31T13:24:20.791Z,2.13
2018-03-31T13:26:48.210Z,1.90
2018-03-31T13:29:15.213Z,1.93
2018-03-31T13:31:42.232Z,2.80
2018-03-31T13:34:09.248Z,1.80
2018-03-31T13:36:36.268Z,1.83
2018-03-31T13:39:03.652Z,1.60
2018-03-31T13:41:30.679Z,1.03
2018-03-31T13:43:57.689Z,1.20
2018-03-31T13:46:24.688Z,1.90
2018-03-31T13:48:51.757Z,1.70
2018-03-31T13:51:18.777Z,1.20
2018-03-31T13:53:45.818Z,1.20
2018-03-31T13:56:12.936Z,1.90
2018-03-31T13:58:40.432Z,1.87
2018-03-31T14:01:07.440Z,1.80
2018-03-31T14:03:34.452Z,1.30
2018-03-31T14:06:01.511Z,1.60
2018-03-31T14:08:28.596Z,2.17
2018-03-31T14:10:55.694Z,1.57
2018-03-31T14:13:22.717Z,2.67
2018-03-31T14:15:49.725Z,2.73
2018-03-31T14:18:17.144Z,2.10
2018-03-31T14:20:44.148Z,2.67
2018-03-31T14:23:11.171Z,2.20
2018-03-31T14:25:38.219Z,1.97
2018-03-31T14:28:06.133Z,2.43
2018-03-31T14:30:33.155Z,2.20
2018-03-31T14:33:00.176Z,2.13
2018-03-31T14:35:27.184Z,2.30
2018-03-31T14:37:54.210Z,2.50
2018-03-31T14:40:21.694Z,2.57
2018-03-31T14:42:49.161Z,2.37
2018-03-31T14:45:16.567Z,2.37
2018-03-31T14:47:43.604Z,2.60
2018-03-31T14:50:10.728Z,2.40
2018-03-31T14:52:37.749Z,2.20
2018-03-31T14:55:04.810Z,2.10
2018-03-31T14:57:31.893Z,2.63
2018-03-31T14:59:59.012Z,2.77
2018-03-31T15:02:26.042Z,2.17
2018-03-31T15:04:53.055Z,2.57
2018-03-31T15:07:20.073Z,2.40
2018-03-31T15:09:47.174Z,2.63
2018-03-31T15:12:14.593Z,3.43
2018-03-31T15:14:41.637Z,3.37
2018-03-31T15:17:09.108Z,1.90
2018-03-31T15:19:36.591Z,1.33
2018-03-31T15:22:04.062Z,2.37
2018-03-31T15:24:31.745Z,2.10
2018-03-31T15:26:58.837Z,1.40
2018-03-31T15:29:26.311Z,1.40
2018-03-31T15:31:53.322Z,1.77
2018-03-31T15:34:20.344Z,1.73
2018-03-31T15:36:47.456Z,1.33
2018-03-31T15:39:14.483Z,1.70
2018-03-31T15:41:41.573Z,2.83
2018-03-31T15:44:08.998Z,3.03
2018-03-31T15:46:36.040Z,3.60
2018-03-31T15:49:03.083Z,2.97
2018-03-31T15:51:30.190Z,2.40
2018-03-31T15:53:57.253Z,2.27
2018-03-31T15:56:24.728Z,3.13
2018-03-31T15:58:52.225Z,2.37
2018-03-31T16:01:19.696Z,1.87
2018-03-31T16:03:47.121Z,2.20
2018-03-31T16:06:14.136Z,2.40
2018-03-31T16:08:41.169Z,1.63
2018-03-31T16:11:08.165Z,2.10
2018-03-31T16:13:35.248Z,1.70
2018-03-31T16:16:02.250Z,2.10
2018-03-31T16:18:29.736Z,2.23
2018-03-31T16:20:56.780Z,1.50
2018-03-31T16:23:23.796Z,1.60
2018-03-31T16:25:50.800Z,1.90
2018-03-31T16:28:17.876Z,1.43
2018-03-31T16:30:44.882Z,1.73
2018-03-31T16:33:12.358Z,2.10
2018-03-31T16:35:39.803Z,1.47
2018-03-31T16:38:06.814Z,1.47
2018-03-31T16:40:34.298Z,1.23
2018-03-31T16:43:01.775Z,1.50
2018-03-31T16:45:29.351Z,1.50
2018-03-31T16:47:56.362Z,1.33
2018-03-31T16:50:23.403Z,2.10
2018-03-31T16:52:50.805Z,1.40
2018-03-31T16:55:17.870Z,2.07
2018-03-31T16:57:45.265Z,1.90
2018-03-31T17:00:12.288Z,1.70
2018-03-31T17:02:39.368Z,1.33
2018-03-31T17:05:06.394Z,1.43
2018-03-31T17:07:33.454Z,1.10
2018-03-31T17:10:00.492Z,2.10
2018-03-31T17:12:27.917Z,2.60
2018-03-31T17:14:54.943Z,1.50
2018-03-31T17:17:21.936Z,1.60
2018-03-31T17:19:49.373Z,2.00
2018-03-31T17:22:16.397Z,10.60
2018-03-31T17:24:43.444Z,9.57
2018-03-31T17:27:10.512Z,12.70
2018-03-31T17:29:37.592Z,14.87
2018-03-31T17:32:04.676Z,65.37
2018-03-31T17:34:31.697Z,74.90
2018-03-31T17:36:58.722Z,82.90
2018-03-31T17:39:25.797Z,98.57
2018-03-31T17:41:53.253Z,131.57
2018-03-31T17:44:20.287Z,93.50
2018-03-31T17:46:47.288Z,65.73
2018-03-31T17:49:14.417Z,26.53
2018-03-31T17:51:41.866Z,18.00
2018-03-31T17:54:09.354Z,10.90
2018-03-31T17:56:36.366Z,8.60
2018-03-31T17:59:03.400Z,8.70
2018-03-31T18:01:30.812Z,9.30
2018-03-31T18:03:57.874Z,8.93
2018-03-31T18:06:25.032Z,10.27
2018-03-31T18:08:52.101Z,10.60
2018-03-31T18:11:19.507Z,7.73
2018-03-31T18:13:46.509Z,9.80
2018-03-31T18:16:13.615Z,27.37
2018-03-31T18:18:41.027Z,24.00
2018-03-31T18:21:08.186Z,15.40
2018-03-31T18:23:35.658Z,18.73
2018-03-31T18:26:03.076Z,18.00
2018-03-31T18:28:30.076Z,17.47
2018-03-31T18:30:57.182Z,21.07
2018-03-31T18:33:24.211Z,13.87
2018-03-31T18:35:51.326Z,17.80
2018-03-31T18:38:18.739Z,24.67
2018-03-31T18:40:45.869Z,35.65
2018-03-31T18:43:13.375Z,17.90
2018-03-31T18:45:40.807Z,16.60
2018-03-31T18:48:07.817Z,14.23
2018-03-31T18:50:35.236Z,10.85
2018-03-31T18:53:02.276Z,16.25
2018-03-31T18:55:29.705Z,14.87
2018-03-31T18:57:56.708Z,11.30
2018-03-31T19:00:23.732Z,6.43
2018-03-31T19:02:50.766Z,6.10
2018-03-31T19:05:18.240Z,6.97
2018-03-31T19:07:45.322Z,12.50
2018-03-31T19:10:12.754Z,7.53
2018-03-31T19:12:39.760Z,8.15
2018-03-31T19:15:06.790Z,8.43
2018-03-31T19:17:33.928Z,8.98
2018-03-31T19:20:01.377Z,9.75
2018-03-31T19:22:28.482Z,9.95
2018-03-31T19:25:01.596Z,9.68
2018-03-31T19:27:29.096Z,9.13
2018-03-31T19:29:56.106Z,8.02
2018-03-31T19:32:23.146Z,7.97
2018-03-31T19:34:50.148Z,9.10
2018-03-31T19:37:17.252Z,9.32
2018-03-31T19:39:50.753Z,10.93
2018-03-31T19:42:17.762Z,8.32
2018-03-31T19:44:45.232Z,10.13
2018-03-31T19:47:12.331Z,12.40
2018-03-31T19:49:39.341Z,12.82
2018-03-31T19:52:06.477Z,10.10
2018-03-31T19:54:33.518Z,11.82
2018-03-31T19:57:00.544Z,9.20
2018-03-31T19:59:27.562Z,13.30
2018-03-31T20:01:54.636Z,6.80
2018-03-31T20:04:21.637Z,4.20
2018-03-31T20:06:49.116Z,3.87
2018-03-31T20:09:16.546Z,3.90
2018-03-31T20:11:43.554Z,4.40
2018-03-31T20:14:10.562Z,3.83
2018-03-31T20:16:37.576Z,4.05
2018-03-31T20:19:04.582Z,5.40
2018-03-31T20:21:32.010Z,4.18
2018-03-31T20:23:59.026Z,4.95
2018-03-31T20:26:26.445Z,5.22
2018-03-31T20:28:53.478Z,4.05
2018-03-31T20:31:20.945Z,4.15
2018-03-31T20:33:48.023Z,4.00
2018-03-31T20:36:15.106Z,4.70
2018-03-31T20:38:42.492Z,5.53
2018-03-31T20:41:09.956Z,7.05
2018-03-31T20:43:36.959Z,6.65
2018-03-31T20:46:03.972Z,7.47
2018-03-31T20:48:30.968Z,6.60
2018-03-31T20:50:58.007Z,7.10
2018-03-31T20:53:25.010Z,8.57
2018-03-31T20:55:52.088Z,6.47
2018-03-31T20:58:19.118Z,6.45
2018-03-31T21:00:46.112Z,6.60
2018-03-31T21:03:13.117Z,7.55
2018-03-31T21:05:40.549Z,7.72
2018-03-31T21:08:07.570Z,8.05
2018-03-31T21:10:34.953Z,8.40
2018-03-31T21:13:02.430Z,9.98
2018-03-31T21:15:29.908Z,8.50
2018-03-31T21:17:57.391Z,10.57
2018-03-31T21:20:24.415Z,11.12
2018-03-31T21:22:51.520Z,11.15
2018-03-31T21:25:18.605Z,10.80
2018-03-31T21:27:45.678Z,8.18
2018-03-31T21:30:13.089Z,9.00
2018-03-31T21:32:40.125Z,8.18
2018-03-31T21:35:07.131Z,8.85
2018-03-31T21:37:34.154Z,7.60
2018-03-31T21:40:01.244Z,7.28
2018-03-31T21:42:28.327Z,6.03
2018-03-31T21:44:55.712Z,7.60
2018-03-31T21:47:23.148Z,6.65
2018-03-31T21:49:50.248Z,7.07
2018-03-31T21:52:17.352Z,7.72
2018-03-31T21:54:44.815Z,7.12
2018-03-31T21:57:12.284Z,7.68
2018-03-31T21:59:39.360Z,7.68
2018-03-31T22:02:06.371Z,6.32
2018-03-31T22:04:33.369Z,5.10
2018-03-31T22:07:00.388Z,6.72
2018-03-31T22:09:27.777Z,8.00
2018-03-31T22:11:55.180Z,6.55
2018-03-31T22:14:27.745Z,6.18
2018-03-31T22:16:54.819Z,6.15
2018-03-31T22:19:22.301Z,6.70
2018-03-31T22:21:49.360Z,6.25
2018-03-31T22:24:16.444Z,6.93
2018-03-31T22:26:43.442Z,6.60
2018-03-31T22:29:10.467Z,6.18
2018-03-31T22:31:37.469Z,6.80
2018-03-31T22:34:04.936Z,7.60
2018-03-31T22:36:32.355Z,8.05
2018-03-31T22:38:59.374Z,7.18
2018-03-31T22:41:26.372Z,8.48
2018-03-31T22:43:53.384Z,10.30
2018-03-31T22:46:20.391Z,9.73
2018-03-31T22:48:47.490Z,9.32
2018-03-31T22:51:14.877Z,9.15
2018-03-31T22:53:42.285Z,10.02
2018-03-31T22:56:09.280Z,9.85
2018-03-31T22:58:36.297Z,10.90
2018-03-31T23:01:03.288Z,9.43
2018-03-31T23:03:30.309Z,10.10
2018-03-31T23:05:57.319Z,10.95
2018-03-31T23:08:24.784Z,10.48
2018-03-31T23:10:51.791Z,10.23
2018-03-31T23:13:18.815Z,12.48
2018-03-31T23:15:46.238Z,10.95
2018-03-31T23:18:13.256Z,11.63
2018-03-31T23:20:40.261Z,12.30
2018-03-31T23:23:07.755Z,14.15
2018-03-31T23:25:35.162Z,13.27
2018-03-31T23:28:02.220Z,14.75
2018-03-31T23:30:29.226Z,14.70
2018-03-31T23:32:56.251Z,15.50
2018-03-31T23:35:23.649Z,15.18
2018-03-31T23:37:50.668Z,15.48
2018-03-31T23:40:17.748Z,14.25
2018-03-31T23:42:44.779Z,15.77
2018-03-31T23:45:11.802Z,16.20
2018-03-31T23:47:38.800Z,16.27
2018-03-31T23:50:05.822Z,14.77
2018-03-31T23:52:32.912Z,14.57
2018-03-31T23:54:59.989Z,15.65
2018-03-31T23:57:26.992Z,15.35
2018-03-31T23:59:54.033Z,15.20
